Share

Jyvaskyla, Finland

9:26 AM EEST on April 25, 2014 (GMT +0300)
Jyvaskyla (EFJY) Elev 476 ft | 62.40 °N, 25.68 °E | Change Station

Current weather conditions updated 6 minutes ago

Clear
Clear
45 °F
Feels Like 42 °F
N
5
Wind Variable Wind from WNW
Sunrise 5:21 AM
Sunset 9:11 PM
Moon Waning Crescent

Today is forecast to be Much Warmer than yesterday.

Pressure 30.21 in
Visibility -9999.0 miles
Clouds
Windchill 42 °F
Dew Point 25 °F
Humidity 46%
Rainfall 0.00 in
Snow Depth Not available.
UV Not available.
Pollen Not available.
Air Quality Not available.
Flu Activity Not available.
METAR EFJY 250620Z 29004KT 250V350 CAVOK 07/M04 Q1023

More Conditions Fewer Conditions

Pressure 30.21 in
Visibility -9999.0 miles
Clouds
Windchill 42 °F
Dew Point 25 °F
Humidity 46%
Rainfall 0.00 in
Snow Depth Not available.
UV Not available.
Pollen Not available.
Air Quality Not available.
Flu Activity Not available.
METAR EFJY 250620Z 29004KT 250V350 CAVOK 07/M04 Q1023

More Conditions Fewer Conditions

10-Day Weather Forecast

Almanac

Astronomy

Apr. 25, 2014 Rise Set
Actual Time 5:21 AM EEST 9:11 PM EEST
Civil Twilight 4:24 AM EEST 10:08 PM EEST
Nautical Twilight 2:55 AM EEST 11:40 PM EEST
Astronomical Twilight Sun does not rise Sun does not rise
Moon 4:19 AM EEST 3:58 PM EEST
Length of Visible Light 17h 43m
Length of Day
15h 50m
Tomorrow will be 6m 0s longer.
Waning Crescent, 19% of the Moon is Illuminated
Today
Waning Crescent
Apr 29
New
May 6
First Quarter
May 14
Full
May 21
Last Quarter

Yesterday's Extremes

Country Highs Country Lows

Community

  • Deer in evening light
    Deer in evening light
  • Critter
    Critter
  • Jone Runs Falls
    Jone Runs Falls
  • Easter in Shenandoah National Park
    Easter in Shenandoah National Park
  • Sunset at Apalachicola Bay, Florida
    Sunset at Apalachicola Bay, Florida

WunderPhotos

Upload Photos

1,704,867 photos uploaded!

WunderBlogs® & News

Nearby

Snow Depth

Not available.

Coastal Water Temperatures

Place Temperature
No Stations Reporting

Earthquake Activity

City Distance Mag. Time & Date
No recent earthquake activity has been reported nearby.
Minimum magnitude displayed is 2.5.

Nearby Weather Stations

Station Location Temp. Windchill Dew Point Humidity Wind Precip. Elev Updated Type
Palokka, Jyväskylä 45.1 °F 45 °F 26 °F 47% SW  at  2.2 mph 0.00 in / hr 330 ft 9:25 AM EEST Rapid Fire
Laukaa, Vihtavuori 43.0 °F 43 °F 25 °F 48% West  at  1.0 mph 0.00 in / hr 324 ft 9:26 AM EEST Rapid Fire
Jyväskylä 43.6 °F 44 °F 25 °F 48% NNW  at  2.0 mph 0.00 in / hr 313 ft 9:00 AM EEST Normal
Kinkovuori, Jyväskylä 44.5 °F 44 °F 26 °F 48% WNW  at  3.0 mph 0.00 in / hr 410 ft 9:25 AM EEST Normal
Muurame 40.4 °F 40 °F 24 °F 51% WNW  at  2.0 mph 0.00 in / hr 306 ft 9:15 AM EEST Normal

Show More Stations Show Fewer Stations

What do you think?

We're not finished. Please let us know what you like, what you don't like, and what you are still missing.